sensor_id;sensor_type;location;lat;lon;timestamp;temperature;humidity
5792;DHT22;2922;53.482;10.006;2024-01-07T00:01:26;-0.80;99.90
5792;DHT22;2922;53.482;10.006;2024-01-07T00:03:52;-0.80;99.90
5792;DHT22;2922;53.482;10.006;2024-01-07T00:06:17;-0.80;99.90
5792;DHT22;2922;53.482;10.006;2024-01-07T00:08:43;-0.80;99.90
5792;DHT22;2922;53.482;10.006;2024-01-07T00:11:09;-0.80;99.90
5792;DHT22;2922;53.482;10.006;2024-01-07T00:13:35;-0.80;99.90
5792;DHT22;2922;53.482;10.006;2024-01-07T00:16:01;-0.80;99.90
5792;DHT22;2922;53.482;10.006;2024-01-07T00:18:26;-0.80;99.90
5792;DHT22;2922;53.482;10.006;2024-01-07T00:20:53;-0.80;99.90
5792;DHT22;2922;53.482;10.006;2024-01-07T00:23:18;-0.80;99.90
5792;DHT22;2922;53.482;10.006;2024-01-07T00:25:46;-0.90;99.90
5792;DHT22;2922;53.482;10.006;2024-01-07T00:28:12;-0.90;99.90
5792;DHT22;2922;53.482;10.006;2024-01-07T00:30:38;-0.90;99.90
5792;DHT22;2922;53.482;10.006;2024-01-07T00:33:03;-0.90;99.90
5792;DHT22;2922;53.482;10.006;2024-01-07T00:35:29;-0.90;99.90
5792;DHT22;2922;53.482;10.006;2024-01-07T00:37:54;-1.00;99.90
5792;DHT22;2922;53.482;10.006;2024-01-07T00:40:25;-1.00;99.90
5792;DHT22;2922;53.482;10.006;2024-01-07T00:42:51;-1.00;99.90
5792;DHT22;2922;53.482;10.006;2024-01-07T00:45:18;-1.10;99.90
5792;DHT22;2922;53.482;10.006;2024-01-07T00:47:43;-1.10;99.90
5792;DHT22;2922;53.482;10.006;2024-01-07T00:50:09;-1.10;99.90
5792;DHT22;2922;53.482;10.006;2024-01-07T00:52:35;-1.10;99.90
5792;DHT22;2922;53.482;10.006;2024-01-07T00:55:03;-1.20;99.90
5792;DHT22;2922;53.482;10.006;2024-01-07T00:57:29;-1.20;99.90
5792;DHT22;2922;53.482;10.006;2024-01-07T00:59:55;-1.20;99.90
5792;DHT22;2922;53.482;10.006;2024-01-07T01:02:20;-1.20;99.90
5792;DHT22;2922;53.482;10.006;2024-01-07T01:04:46;-1.30;99.90
5792;DHT22;2922;53.482;10.006;2024-01-07T01:07:11;-1.30;99.90
5792;DHT22;2922;53.482;10.006;2024-01-07T01:09:37;-1.30;99.90
5792;DHT22;2922;53.482;10.006;2024-01-07T01:12:03;-1.30;99.90
5792;DHT22;2922;53.482;10.006;2024-01-07T01:14:29;-1.30;99.90
5792;DHT22;2922;53.482;10.006;2024-01-07T01:16:54;-1.30;99.90
5792;DHT22;2922;53.482;10.006;2024-01-07T01:19:20;-1.30;99.90
5792;DHT22;2922;53.482;10.006;2024-01-07T01:21:45;-1.30;99.90
5792;DHT22;2922;53.482;10.006;2024-01-07T01:24:11;-1.30;99.90
5792;DHT22;2922;53.482;10.006;2024-01-07T01:26:37;-1.30;99.90
5792;DHT22;2922;53.482;10.006;2024-01-07T01:29:04;-1.30;99.90
5792;DHT22;2922;53.482;10.006;2024-01-07T01:31:30;-1.30;99.90
5792;DHT22;2922;53.482;10.006;2024-01-07T01:33:56;-1.30;99.90
5792;DHT22;2922;53.482;10.006;2024-01-07T01:36:21;-1.40;99.90
5792;DHT22;2922;53.482;10.006;2024-01-07T01:38:47;-1.40;99.90
5792;DHT22;2922;53.482;10.006;2024-01-07T01:41:14;-1.40;99.90
5792;DHT22;2922;53.482;10.006;2024-01-07T01:43:40;-1.40;99.90
5792;DHT22;2922;53.482;10.006;2024-01-07T01:46:05;-1.40;99.90
5792;DHT22;2922;53.482;10.006;2024-01-07T01:48:32;-1.40;99.90
5792;DHT22;2922;53.482;10.006;2024-01-07T01:50:57;-1.40;99.90
5792;DHT22;2922;53.482;10.006;2024-01-07T01:53:24;-1.40;99.90
5792;DHT22;2922;53.482;10.006;2024-01-07T01:55:52;-1.40;99.90
5792;DHT22;2922;53.482;10.006;2024-01-07T01:58:18;-1.40;99.90
5792;DHT22;2922;53.482;10.006;2024-01-07T02:00:44;-1.40;99.90
5792;DHT22;2922;53.482;10.006;2024-01-07T02:03:10;-1.40;99.90
5792;DHT22;2922;53.482;10.006;2024-01-07T02:05:35;-1.40;99.90
5792;DHT22;2922;53.482;10.006;2024-01-07T02:08:01;-1.40;99.90
5792;DHT22;2922;53.482;10.006;2024-01-07T02:10:26;-1.40;99.90
5792;DHT22;2922;53.482;10.006;2024-01-07T02:12:54;-1.40;99.90
5792;DHT22;2922;53.482;10.006;2024-01-07T02:15:19;-1.40;99.90
5792;DHT22;2922;53.482;10.006;2024-01-07T02:17:45;-1.40;99.90
5792;DHT22;2922;53.482;10.006;2024-01-07T02:20:11;-1.40;99.90
5792;DHT22;2922;53.482;10.006;2024-01-07T02:22:36;-1.40;99.90
5792;DHT22;2922;53.482;10.006;2024-01-07T02:25:02;-1.40;99.90
5792;DHT22;2922;53.482;10.006;2024-01-07T02:27:28;-1.40;99.90
5792;DHT22;2922;53.482;10.006;2024-01-07T02:29:54;-1.40;99.90
5792;DHT22;2922;53.482;10.006;2024-01-07T02:32:19;-1.40;99.90
5792;DHT22;2922;53.482;10.006;2024-01-07T02:34:45;-1.50;99.90
5792;DHT22;2922;53.482;10.006;2024-01-07T02:37:12;-1.50;99.90
5792;DHT22;2922;53.482;10.006;2024-01-07T02:39:37;-1.40;99.90
5792;DHT22;2922;53.482;10.006;2024-01-07T02:42:03;-1.40;99.90
5792;DHT22;2922;53.482;10.006;2024-01-07T02:44:29;-1.50;99.90
5792;DHT22;2922;53.482;10.006;2024-01-07T02:46:55;-1.50;99.90
5792;DHT22;2922;53.482;10.006;2024-01-07T02:49:20;-1.50;99.90
5792;DHT22;2922;53.482;10.006;2024-01-07T02:51:46;-1.50;99.90
5792;DHT22;2922;53.482;10.006;2024-01-07T02:54:15;-1.50;99.90
5792;DHT22;2922;53.482;10.006;2024-01-07T02:56:40;-1.40;99.90
5792;DHT22;2922;53.482;10.006;2024-01-07T02:59:06;-1.50;99.90
5792;DHT22;2922;53.482;10.006;2024-01-07T03:01:32;-1.40;99.90
5792;DHT22;2922;53.482;10.006;2024-01-07T03:03:57;-1.40;99.90
5792;DHT22;2922;53.482;10.006;2024-01-07T03:06:26;-1.40;99.90
5792;DHT22;2922;53.482;10.006;2024-01-07T03:08:53;-1.40;99.90
5792;DHT22;2922;53.482;10.006;2024-01-07T03:11:18;-1.40;99.90
5792;DHT22;2922;53.482;10.006;2024-01-07T03:13:44;-1.40;99.90
5792;DHT22;2922;53.482;10.006;2024-01-07T03:16:19;-1.30;99.90
5792;DHT22;2922;53.482;10.006;2024-01-07T03:18:45;-1.30;99.90
5792;DHT22;2922;53.482;10.006;2024-01-07T03:21:17;-1.30;99.90
5792;DHT22;2922;53.482;10.006;2024-01-07T03:23:42;-1.30;99.90
5792;DHT22;2922;53.482;10.006;2024-01-07T03:26:08;-1.30;99.90
5792;DHT22;2922;53.482;10.006;2024-01-07T03:28:33;-1.30;99.90
5792;DHT22;2922;53.482;10.006;2024-01-07T03:31:13;-1.20;99.90
5792;DHT22;2922;53.482;10.006;2024-01-07T03:33:40;-1.30;99.90
5792;DHT22;2922;53.482;10.006;2024-01-07T03:36:10;-1.20;99.90
5792;DHT22;2922;53.482;10.006;2024-01-07T03:38:36;-1.20;99.90
5792;DHT22;2922;53.482;10.006;2024-01-07T03:41:03;-1.20;99.90
5792;DHT22;2922;53.482;10.006;2024-01-07T03:43:29;-1.20;99.90
5792;DHT22;2922;53.482;10.006;2024-01-07T03:45:54;-1.20;99.90
5792;DHT22;2922;53.482;10.006;2024-01-07T03:48:20;-1.20;99.90
5792;DHT22;2922;53.482;10.006;2024-01-07T03:50:46;-1.10;99.90
5792;DHT22;2922;53.482;10.006;2024-01-07T03:53:12;-1.10;99.90
5792;DHT22;2922;53.482;10.006;2024-01-07T03:55:38;-1.10;99.90
5792;DHT22;2922;53.482;10.006;2024-01-07T03:58:04;-1.10;99.90
5792;DHT22;2922;53.482;10.006;2024-01-07T04:00:30;-1.10;99.90
5792;DHT22;2922;53.482;10.006;2024-01-07T04:02:56;-1.10;99.90
5792;DHT22;2922;53.482;10.006;2024-01-07T04:05:21;-1.10;99.90
5792;DHT22;2922;53.482;10.006;2024-01-07T04:07:47;-1.10;99.90
5792;DHT22;2922;53.482;10.006;2024-01-07T04:10:13;-1.10;99.90
5792;DHT22;2922;53.482;10.006;2024-01-07T04:12:38;-1.00;99.90
5792;DHT22;2922;53.482;10.006;2024-01-07T04:15:04;-1.00;99.90
5792;DHT22;2922;53.482;10.006;2024-01-07T04:17:30;-1.00;99.90
5792;DHT22;2922;53.482;10.006;2024-01-07T04:19:56;-1.00;99.90
5792;DHT22;2922;53.482;10.006;2024-01-07T04:22:21;-1.00;99.90
5792;DHT22;2922;53.482;10.006;2024-01-07T04:24:47;-1.00;99.90
5792;DHT22;2922;53.482;10.006;2024-01-07T04:27:12;-1.00;99.90
5792;DHT22;2922;53.482;10.006;2024-01-07T04:29:38;-0.90;99.90
5792;DHT22;2922;53.482;10.006;2024-01-07T04:32:04;-0.90;99.90
5792;DHT22;2922;53.482;10.006;2024-01-07T04:34:29;-0.90;99.90
5792;DHT22;2922;53.482;10.006;2024-01-07T04:36:55;-0.90;99.90
5792;DHT22;2922;53.482;10.006;2024-01-07T04:39:21;-0.90;99.90
5792;DHT22;2922;53.482;10.006;2024-01-07T04:41:46;-0.90;99.90
5792;DHT22;2922;53.482;10.006;2024-01-07T04:44:12;-0.90;99.90
5792;DHT22;2922;53.482;10.006;2024-01-07T04:46:38;-0.90;99.90
5792;DHT22;2922;53.482;10.006;2024-01-07T04:49:04;-0.80;99.90
5792;DHT22;2922;53.482;10.006;2024-01-07T04:51:31;-0.80;99.90
5792;DHT22;2922;53.482;10.006;2024-01-07T04:53:57;-0.80;99.90
5792;DHT22;2922;53.482;10.006;2024-01-07T04:56:22;-0.80;99.90
5792;DHT22;2922;53.482;10.006;2024-01-07T04:58:48;-0.80;99.90
5792;DHT22;2922;53.482;10.006;2024-01-07T05:01:13;-0.80;99.90
5792;DHT22;2922;53.482;10.006;2024-01-07T05:03:39;-0.80;99.90
5792;DHT22;2922;53.482;10.006;2024-01-07T05:06:05;-0.80;99.90
5792;DHT22;2922;53.482;10.006;2024-01-07T05:08:30;-0.80;99.90
5792;DHT22;2922;53.482;10.006;2024-01-07T05:10:56;-0.80;99.90
5792;DHT22;2922;53.482;10.006;2024-01-07T05:13:22;-0.80;99.90
5792;DHT22;2922;53.482;10.006;2024-01-07T05:15:47;-0.70;99.90
5792;DHT22;2922;53.482;10.006;2024-01-07T05:18:20;-0.70;99.90
5792;DHT22;2922;53.482;10.006;2024-01-07T05:20:46;-0.70;99.90
5792;DHT22;2922;53.482;10.006;2024-01-07T05:23:11;-0.70;99.90
5792;DHT22;2922;53.482;10.006;2024-01-07T05:25:37;-0.70;99.90
5792;DHT22;2922;53.482;10.006;2024-01-07T05:28:03;-0.70;99.90
5792;DHT22;2922;53.482;10.006;2024-01-07T05:30:28;-0.70;99.90
5792;DHT22;2922;53.482;10.006;2024-01-07T05:32:54;-0.60;99.90
5792;DHT22;2922;53.482;10.006;2024-01-07T05:35:19;-0.60;99.90
5792;DHT22;2922;53.482;10.006;2024-01-07T05:37:45;-0.60;99.90
5792;DHT22;2922;53.482;10.006;2024-01-07T05:40:11;-0.60;99.90
5792;DHT22;2922;53.482;10.006;2024-01-07T05:42:36;-0.60;99.90
5792;DHT22;2922;53.482;10.006;2024-01-07T05:45:02;-0.60;99.90
5792;DHT22;2922;53.482;10.006;2024-01-07T05:47:28;-0.60;99.90
5792;DHT22;2922;53.482;10.006;2024-01-07T05:49:53;-0.60;99.90
5792;DHT22;2922;53.482;10.006;2024-01-07T05:52:19;-0.60;99.90
5792;DHT22;2922;53.482;10.006;2024-01-07T05:54:44;-0.60;99.90
5792;DHT22;2922;53.482;10.006;2024-01-07T05:57:12;-0.60;99.90
5792;DHT22;2922;53.482;10.006;2024-01-07T05:59:37;-0.60;99.90
5792;DHT22;2922;53.482;10.006;2024-01-07T06:02:03;-0.60;99.90
5792;DHT22;2922;53.482;10.006;2024-01-07T06:04:28;-0.50;99.90
5792;DHT22;2922;53.482;10.006;2024-01-07T06:06:54;-0.50;99.90
5792;DHT22;2922;53.482;10.006;2024-01-07T06:09:20;-0.50;99.90
5792;DHT22;2922;53.482;10.006;2024-01-07T06:11:45;-0.50;99.90
5792;DHT22;2922;53.482;10.006;2024-01-07T06:14:12;-0.50;99.90
5792;DHT22;2922;53.482;10.006;2024-01-07T06:16:37;-0.50;99.90
5792;DHT22;2922;53.482;10.006;2024-01-07T06:19:03;-0.50;99.90
5792;DHT22;2922;53.482;10.006;2024-01-07T06:21:28;-0.50;99.90
5792;DHT22;2922;53.482;10.006;2024-01-07T06:23:54;-0.50;99.90
5792;DHT22;2922;53.482;10.006;2024-01-07T06:26:20;-0.50;99.90
5792;DHT22;2922;53.482;10.006;2024-01-07T06:28:46;-0.50;99.90
5792;DHT22;2922;53.482;10.006;2024-01-07T06:31:11;-0.40;99.90
5792;DHT22;2922;53.482;10.006;2024-01-07T06:33:37;-0.40;99.90
5792;DHT22;2922;53.482;10.006;2024-01-07T06:36:02;-0.40;99.90
5792;DHT22;2922;53.482;10.006;2024-01-07T06:38:29;-0.40;99.90
5792;DHT22;2922;53.482;10.006;2024-01-07T06:40:55;-0.40;99.90
5792;DHT22;2922;53.482;10.006;2024-01-07T06:43:24;-0.40;99.90
5792;DHT22;2922;53.482;10.006;2024-01-07T06:45:50;-0.40;99.90
5792;DHT22;2922;53.482;10.006;2024-01-07T06:48:15;-0.40;99.90
5792;DHT22;2922;53.482;10.006;2024-01-07T06:50:41;-0.40;99.90
5792;DHT22;2922;53.482;10.006;2024-01-07T06:53:06;-0.40;99.90
5792;DHT22;2922;53.482;10.006;2024-01-07T06:55:32;-0.50;99.90
5792;DHT22;2922;53.482;10.006;2024-01-07T06:57:57;-0.50;99.90
5792;DHT22;2922;53.482;10.006;2024-01-07T07:00:23;-0.50;99.90
5792;DHT22;2922;53.482;10.006;2024-01-07T07:02:49;-0.50;99.90
5792;DHT22;2922;53.482;10.006;2024-01-07T07:05:15;-0.50;99.90
5792;DHT22;2922;53.482;10.006;2024-01-07T07:07:40;-0.50;99.90
5792;DHT22;2922;53.482;10.006;2024-01-07T07:10:06;-0.50;99.90
5792;DHT22;2922;53.482;10.006;2024-01-07T07:12:32;-0.40;99.90
5792;DHT22;2922;53.482;10.006;2024-01-07T07:14:57;-0.40;99.90
5792;DHT22;2922;53.482;10.006;2024-01-07T07:17:23;-0.40;99.90
5792;DHT22;2922;53.482;10.006;2024-01-07T07:19:49;-0.40;99.90
5792;DHT22;2922;53.482;10.006;2024-01-07T07:22:14;-0.40;99.90
5792;DHT22;2922;53.482;10.006;2024-01-07T07:24:41;-0.40;99.90
5792;DHT22;2922;53.482;10.006;2024-01-07T07:27:07;-0.40;99.90
5792;DHT22;2922;53.482;10.006;2024-01-07T07:29:32;-0.40;99.90
5792;DHT22;2922;53.482;10.006;2024-01-07T07:31:58;-0.30;99.90
5792;DHT22;2922;53.482;10.006;2024-01-07T07:34:23;-0.30;99.90
5792;DHT22;2922;53.482;10.006;2024-01-07T07:36:49;-0.30;99.90
5792;DHT22;2922;53.482;10.006;2024-01-07T07:39:14;-0.30;99.90
5792;DHT22;2922;53.482;10.006;2024-01-07T07:41:40;-0.30;99.90
5792;DHT22;2922;53.482;10.006;2024-01-07T07:44:06;-0.30;99.90
5792;DHT22;2922;53.482;10.006;2024-01-07T07:46:32;-0.30;99.90
5792;DHT22;2922;53.482;10.006;2024-01-07T07:48:57;-0.30;99.90
5792;DHT22;2922;53.482;10.006;2024-01-07T07:51:23;-0.20;99.90
5792;DHT22;2922;53.482;10.006;2024-01-07T07:53:49;-0.20;99.90
5792;DHT22;2922;53.482;10.006;2024-01-07T07:56:14;-0.20;99.90
5792;DHT22;2922;53.482;10.006;2024-01-07T07:58:40;-0.30;99.90
5792;DHT22;2922;53.482;10.006;2024-01-07T08:01:05;-0.30;99.90
5792;DHT22;2922;53.482;10.006;2024-01-07T08:03:32;-0.30;99.90
5792;DHT22;2922;53.482;10.006;2024-01-07T08:05:58;-0.30;99.90
5792;DHT22;2922;53.482;10.006;2024-01-07T08:08:23;-0.40;99.90
5792;DHT22;2922;53.482;10.006;2024-01-07T08:10:49;-0.40;99.90
5792;DHT22;2922;53.482;10.006;2024-01-07T08:13:15;-0.40;99.90
5792;DHT22;2922;53.482;10.006;2024-01-07T08:15:41;-0.40;99.90
5792;DHT22;2922;53.482;10.006;2024-01-07T08:18:06;-0.50;99.90
5792;DHT22;2922;53.482;10.006;2024-01-07T08:20:32;-0.50;99.90
5792;DHT22;2922;53.482;10.006;2024-01-07T08:22:57;-0.50;99.90
5792;DHT22;2922;53.482;10.006;2024-01-07T08:25:23;-0.50;99.90
5792;DHT22;2922;53.482;10.006;2024-01-07T08:27:49;-0.50;99.90
5792;DHT22;2922;53.482;10.006;2024-01-07T08:30:14;-0.50;99.90
5792;DHT22;2922;53.482;10.006;2024-01-07T08:32:40;-0.50;99.90
5792;DHT22;2922;53.482;10.006;2024-01-07T08:35:09;-0.40;99.90
5792;DHT22;2922;53.482;10.006;2024-01-07T08:37:35;-0.30;99.90
5792;DHT22;2922;53.482;10.006;2024-01-07T08:40:00;-0.20;99.90
5792;DHT22;2922;53.482;10.006;2024-01-07T08:42:27;-0.20;99.90
5792;DHT22;2922;53.482;10.006;2024-01-07T08:44:52;-0.20;99.90
5792;DHT22;2922;53.482;10.006;2024-01-07T08:47:18;-0.20;99.90
5792;DHT22;2922;53.482;10.006;2024-01-07T08:49:43;-0.20;99.90
5792;DHT22;2922;53.482;10.006;2024-01-07T08:52:09;-0.20;99.90
5792;DHT22;2922;53.482;10.006;2024-01-07T08:54:34;-0.20;99.90
5792;DHT22;2922;53.482;10.006;2024-01-07T08:57:00;-0.20;99.90
5792;DHT22;2922;53.482;10.006;2024-01-07T08:59:26;-0.10;99.90
5792;DHT22;2922;53.482;10.006;2024-01-07T09:01:51;-0.10;99.90
5792;DHT22;2922;53.482;10.006;2024-01-07T09:04:17;-0.10;99.90
5792;DHT22;2922;53.482;10.006;2024-01-07T09:06:44;-0.10;99.90
5792;DHT22;2922;53.482;10.006;2024-01-07T09:09:09;-0.10;99.90
5792;DHT22;2922;53.482;10.006;2024-01-07T09:11:35;-0.10;99.90
5792;DHT22;2922;53.482;10.006;2024-01-07T09:14:03;-0.10;99.90
5792;DHT22;2922;53.482;10.006;2024-01-07T09:16:29;0.00;99.90
5792;DHT22;2922;53.482;10.006;2024-01-07T09:18:55;0.00;99.90
5792;DHT22;2922;53.482;10.006;2024-01-07T09:21:21;0.00;99.90
5792;DHT22;2922;53.482;10.006;2024-01-07T09:23:48;0.00;99.90
5792;DHT22;2922;53.482;10.006;2024-01-07T09:26:15;0.00;99.90
5792;DHT22;2922;53.482;10.006;2024-01-07T09:28:40;0.10;99.90
5792;DHT22;2922;53.482;10.006;2024-01-07T09:31:08;0.10;99.90
5792;DHT22;2922;53.482;10.006;2024-01-07T09:33:33;0.10;99.90
5792;DHT22;2922;53.482;10.006;2024-01-07T09:35:59;0.20;99.90
5792;DHT22;2922;53.482;10.006;2024-01-07T09:38:24;0.20;99.90
5792;DHT22;2922;53.482;10.006;2024-01-07T09:40:51;0.20;99.90
5792;DHT22;2922;53.482;10.006;2024-01-07T09:43:19;0.20;99.90
5792;DHT22;2922;53.482;10.006;2024-01-07T09:45:46;0.30;99.90
5792;DHT22;2922;53.482;10.006;2024-01-07T09:48:13;0.40;99.90
5792;DHT22;2922;53.482;10.006;2024-01-07T09:50:39;0.40;99.90
5792;DHT22;2922;53.482;10.006;2024-01-07T09:53:07;0.50;99.90
5792;DHT22;2922;53.482;10.006;2024-01-07T09:56:10;0.50;99.90
5792;DHT22;2922;53.482;10.006;2024-01-07T09:58:37;0.70;99.90
5792;DHT22;2922;53.482;10.006;2024-01-07T10:01:04;0.70;99.90
5792;DHT22;2922;53.482;10.006;2024-01-07T10:03:30;0.90;99.90
5792;DHT22;2922;53.482;10.006;2024-01-07T10:05:56;0.90;99.90
5792;DHT22;2922;53.482;10.006;2024-01-07T10:08:21;1.00;99.90
5792;DHT22;2922;53.482;10.006;2024-01-07T10:10:49;1.20;99.90
5792;DHT22;2922;53.482;10.006;2024-01-07T10:13:14;1.30;99.90
5792;DHT22;2922;53.482;10.006;2024-01-07T10:15:40;1.50;99.90
5792;DHT22;2922;53.482;10.006;2024-01-07T10:18:07;1.70;99.90
5792;DHT22;2922;53.482;10.006;2024-01-07T10:20:33;1.80;99.90
5792;DHT22;2922;53.482;10.006;2024-01-07T10:23:00;2.00;99.90
5792;DHT22;2922;53.482;10.006;2024-01-07T10:25:26;2.10;99.90
5792;DHT22;2922;53.482;10.006;2024-01-07T10:27:51;2.10;99.90
5792;DHT22;2922;53.482;10.006;2024-01-07T10:30:17;2.30;99.90
5792;DHT22;2922;53.482;10.006;2024-01-07T10:32:43;2.40;99.90
5792;DHT22;2922;53.482;10.006;2024-01-07T10:35:12;2.50;99.90
5792;DHT22;2922;53.482;10.006;2024-01-07T10:37:38;2.50;99.90
5792;DHT22;2922;53.482;10.006;2024-01-07T10:40:07;2.60;99.90
5792;DHT22;2922;53.482;10.006;2024-01-07T10:42:33;2.50;99.90
5792;DHT22;2922;53.482;10.006;2024-01-07T10:45:02;2.40;99.90
5792;DHT22;2922;53.482;10.006;2024-01-07T10:47:30;2.20;99.90
5792;DHT22;2922;53.482;10.006;2024-01-07T10:49:57;2.20;99.90
5792;DHT22;2922;53.482;10.006;2024-01-07T10:52:25;2.20;99.90
5792;DHT22;2922;53.482;10.006;2024-01-07T10:54:52;2.20;99.90
5792;DHT22;2922;53.482;10.006;2024-01-07T10:59:56;2.10;99.90
5792;DHT22;2922;53.482;10.006;2024-01-07T11:02:23;2.00;99.90
5792;DHT22;2922;53.482;10.006;2024-01-07T11:05:02;2.10;99.90
5792;DHT22;2922;53.482;10.006;2024-01-07T11:07:42;2.40;99.90
5792;DHT22;2922;53.482;10.006;2024-01-07T11:10:18;2.40;99.90
5792;DHT22;2922;53.482;10.006;2024-01-07T11:12:56;2.30;99.90
5792;DHT22;2922;53.482;10.006;2024-01-07T11:18:23;2.00;99.90
5792;DHT22;2922;53.482;10.006;2024-01-07T11:20:49;1.80;99.90
5792;DHT22;2922;53.482;10.006;2024-01-07T11:23:31;1.80;99.90
5792;DHT22;2922;53.482;10.006;2024-01-07T11:26:03;1.80;99.90
5792;DHT22;2922;53.482;10.006;2024-01-07T11:31:17;1.80;99.90
5792;DHT22;2922;53.482;10.006;2024-01-07T11:33:45;1.70;99.90
5792;DHT22;2922;53.482;10.006;2024-01-07T11:36:13;1.70;99.90
5792;DHT22;2922;53.482;10.006;2024-01-07T11:38:49;1.60;99.90
5792;DHT22;2922;53.482;10.006;2024-01-07T11:41:16;1.40;99.90
5792;DHT22;2922;53.482;10.006;2024-01-07T11:44:03;1.40;99.90
5792;DHT22;2922;53.482;10.006;2024-01-07T11:46:29;1.50;99.90
5792;DHT22;2922;53.482;10.006;2024-01-07T11:48:59;1.40;99.90
5792;DHT22;2922;53.482;10.006;2024-01-07T11:51:29;1.20;99.90
5792;DHT22;2922;53.482;10.006;2024-01-07T11:54:00;1.20;99.90
5792;DHT22;2922;53.482;10.006;2024-01-07T11:56:25;1.10;99.90
5792;DHT22;2922;53.482;10.006;2024-01-07T11:58:54;1.10;99.90
5792;DHT22;2922;53.482;10.006;2024-01-07T12:01:21;1.10;99.90
5792;DHT22;2922;53.482;10.006;2024-01-07T12:03:47;1.00;99.90
5792;DHT22;2922;53.482;10.006;2024-01-07T12:06:13;0.90;99.90
5792;DHT22;2922;53.482;10.006;2024-01-07T12:08:48;0.80;99.90
5792;DHT22;2922;53.482;10.006;2024-01-07T12:11:14;0.80;99.90
5792;DHT22;2922;53.482;10.006;2024-01-07T12:13:41;0.80;99.90
5792;DHT22;2922;53.482;10.006;2024-01-07T12:16:08;0.80;99.90
5792;DHT22;2922;53.482;10.006;2024-01-07T12:18:36;0.80;99.90
5792;DHT22;2922;53.482;10.006;2024-01-07T12:21:02;0.80;99.90
5792;DHT22;2922;53.482;10.006;2024-01-07T12:23:28;0.80;99.90
5792;DHT22;2922;53.482;10.006;2024-01-07T12:25:54;0.70;99.90
5792;DHT22;2922;53.482;10.006;2024-01-07T12:28:21;0.70;99.90
5792;DHT22;2922;53.482;10.006;2024-01-07T12:30:50;0.70;99.90
5792;DHT22;2922;53.482;10.006;2024-01-07T12:33:25;0.70;99.90
5792;DHT22;2922;53.482;10.006;2024-01-07T12:35:51;0.60;99.90
5792;DHT22;2922;53.482;10.006;2024-01-07T12:38:26;0.60;99.90
5792;DHT22;2922;53.482;10.006;2024-01-07T12:40:55;0.60;99.90
5792;DHT22;2922;53.482;10.006;2024-01-07T12:43:21;0.60;99.90
5792;DHT22;2922;53.482;10.006;2024-01-07T12:45:50;0.70;99.90
5792;DHT22;2922;53.482;10.006;2024-01-07T12:48:15;0.70;99.90
5792;DHT22;2922;53.482;10.006;2024-01-07T12:50:41;0.70;99.90
5792;DHT22;2922;53.482;10.006;2024-01-07T12:53:06;0.60;99.90
5792;DHT22;2922;53.482;10.006;2024-01-07T12:55:33;0.60;99.90
5792;DHT22;2922;53.482;10.006;2024-01-07T12:57:58;0.60;99.90
5792;DHT22;2922;53.482;10.006;2024-01-07T13:00:25;0.60;99.90
5792;DHT22;2922;53.482;10.006;2024-01-07T13:02:52;0.60;99.90
5792;DHT22;2922;53.482;10.006;2024-01-07T13:05:17;0.60;99.90
5792;DHT22;2922;53.482;10.006;2024-01-07T13:07:44;0.50;99.90
5792;DHT22;2922;53.482;10.006;2024-01-07T13:10:10;0.50;99.90
5792;DHT22;2922;53.482;10.006;2024-01-07T13:12:35;0.50;99.90
5792;DHT22;2922;53.482;10.006;2024-01-07T13:15:02;0.60;99.90
5792;DHT22;2922;53.482;10.006;2024-01-07T13:17:28;0.60;99.90
5792;DHT22;2922;53.482;10.006;2024-01-07T13:19:55;0.60;99.90
5792;DHT22;2922;53.482;10.006;2024-01-07T13:22:21;0.70;99.90
5792;DHT22;2922;53.482;10.006;2024-01-07T13:24:47;0.70;99.90
5792;DHT22;2922;53.482;10.006;2024-01-07T13:27:12;0.70;99.90
5792;DHT22;2922;53.482;10.006;2024-01-07T13:29:38;0.70;99.90
5792;DHT22;2922;53.482;10.006;2024-01-07T13:32:04;0.70;99.90
5792;DHT22;2922;53.482;10.006;2024-01-07T13:34:30;0.70;99.90
5792;DHT22;2922;53.482;10.006;2024-01-07T13:36:55;0.60;99.90
5792;DHT22;2922;53.482;10.006;2024-01-07T13:39:21;0.50;99.90
5792;DHT22;2922;53.482;10.006;2024-01-07T13:41:47;0.40;99.90
5792;DHT22;2922;53.482;10.006;2024-01-07T13:44:13;0.30;99.90
5792;DHT22;2922;53.482;10.006;2024-01-07T13:46:46;0.20;99.90
5792;DHT22;2922;53.482;10.006;2024-01-07T13:49:12;0.00;99.90
5792;DHT22;2922;53.482;10.006;2024-01-07T13:51:38;-0.10;99.90
5792;DHT22;2922;53.482;10.006;2024-01-07T13:54:04;-0.20;99.90
5792;DHT22;2922;53.482;10.006;2024-01-07T13:56:31;-0.30;99.90
5792;DHT22;2922;53.482;10.006;2024-01-07T13:58:56;-0.40;99.90
5792;DHT22;2922;53.482;10.006;2024-01-07T14:01:22;-0.40;99.90
5792;DHT22;2922;53.482;10.006;2024-01-07T14:03:48;-0.40;99.90
5792;DHT22;2922;53.482;10.006;2024-01-07T14:06:13;-0.40;99.90
5792;DHT22;2922;53.482;10.006;2024-01-07T14:08:39;-0.40;99.90
5792;DHT22;2922;53.482;10.006;2024-01-07T14:11:05;-0.50;99.90
5792;DHT22;2922;53.482;10.006;2024-01-07T14:13:32;-0.40;99.90
5792;DHT22;2922;53.482;10.006;2024-01-07T14:15:58;-0.40;99.90
5792;DHT22;2922;53.482;10.006;2024-01-07T14:18:24;-0.40;99.90
5792;DHT22;2922;53.482;10.006;2024-01-07T14:20:50;-0.40;99.90
5792;DHT22;2922;53.482;10.006;2024-01-07T14:23:16;-0.40;99.90
5792;DHT22;2922;53.482;10.006;2024-01-07T14:25:41;-0.50;99.90
5792;DHT22;2922;53.482;10.006;2024-01-07T14:28:07;-0.50;99.90
5792;DHT22;2922;53.482;10.006;2024-01-07T14:30:33;-0.60;99.90
5792;DHT22;2922;53.482;10.006;2024-01-07T14:32:58;-0.60;99.90
5792;DHT22;2922;53.482;10.006;2024-01-07T14:35:24;-0.70;99.90
5792;DHT22;2922;53.482;10.006;2024-01-07T14:37:51;-0.80;99.90
5792;DHT22;2922;53.482;10.006;2024-01-07T14:40:18;-0.90;99.90
5792;DHT22;2922;53.482;10.006;2024-01-07T14:42:44;-0.90;99.90
5792;DHT22;2922;53.482;10.006;2024-01-07T14:45:09;-1.00;99.90
5792;DHT22;2922;53.482;10.006;2024-01-07T14:47:35;-1.10;99.90
5792;DHT22;2922;53.482;10.006;2024-01-07T14:50:00;-1.20;99.90
5792;DHT22;2922;53.482;10.006;2024-01-07T14:52:28;-1.20;99.90
5792;DHT22;2922;53.482;10.006;2024-01-07T14:54:53;-1.30;99.90
5792;DHT22;2922;53.482;10.006;2024-01-07T14:57:19;-1.30;99.90
5792;DHT22;2922;53.482;10.006;2024-01-07T14:59:44;-1.40;99.90
5792;DHT22;2922;53.482;10.006;2024-01-07T15:02:10;-1.40;99.90
5792;DHT22;2922;53.482;10.006;2024-01-07T15:04:35;-1.50;99.90
5792;DHT22;2922;53.482;10.006;2024-01-07T15:07:01;-1.50;99.90
5792;DHT22;2922;53.482;10.006;2024-01-07T15:09:27;-1.50;99.90
5792;DHT22;2922;53.482;10.006;2024-01-07T15:11:53;-1.50;99.90
5792;DHT22;2922;53.482;10.006;2024-01-07T15:14:19;-1.60;99.90
5792;DHT22;2922;53.482;10.006;2024-01-07T15:16:45;-1.60;99.90
5792;DHT22;2922;53.482;10.006;2024-01-07T15:19:21;-1.70;99.90
5792;DHT22;2922;53.482;10.006;2024-01-07T15:21:47;-1.70;99.90
5792;DHT22;2922;53.482;10.006;2024-01-07T15:24:12;-1.70;99.90
5792;DHT22;2922;53.482;10.006;2024-01-07T15:26:39;-1.70;99.90
5792;DHT22;2922;53.482;10.006;2024-01-07T15:29:05;-1.80;99.90
5792;DHT22;2922;53.482;10.006;2024-01-07T15:31:30;-1.80;99.90
5792;DHT22;2922;53.482;10.006;2024-01-07T15:33:56;-1.90;99.90
5792;DHT22;2922;53.482;10.006;2024-01-07T15:36:22;-1.90;99.90
5792;DHT22;2922;53.482;10.006;2024-01-07T15:38:47;-2.00;99.90
5792;DHT22;2922;53.482;10.006;2024-01-07T15:41:13;-2.00;99.90
5792;DHT22;2922;53.482;10.006;2024-01-07T15:43:38;-2.00;99.90
5792;DHT22;2922;53.482;10.006;2024-01-07T15:46:04;-2.10;99.90
5792;DHT22;2922;53.482;10.006;2024-01-07T15:48:30;-2.10;99.90
5792;DHT22;2922;53.482;10.006;2024-01-07T15:50:57;-2.10;99.90
5792;DHT22;2922;53.482;10.006;2024-01-07T15:53:24;-2.20;99.90